createdAt,value
2018-09-06T00:01:22.246Z,33.30
2018-09-06T00:03:49.915Z,36.33
2018-09-06T00:06:17.134Z,35.73
2018-09-06T00:08:44.321Z,34.20
2018-09-06T00:11:11.545Z,33.27
2018-09-06T00:13:38.714Z,34.23
2018-09-06T00:16:06.057Z,34.90
2018-09-06T00:18:33.263Z,32.17
2018-09-06T00:21:00.465Z,33.47
2018-09-06T00:23:27.830Z,34.13
2018-09-06T00:25:55.015Z,32.70
2018-09-06T00:28:22.233Z,32.87
2018-09-06T00:30:49.398Z,32.27
2018-09-06T00:33:16.675Z,32.03
2018-09-06T00:35:44.059Z,34.30
2018-09-06T00:38:11.265Z,33.90
2018-09-06T00:40:38.427Z,34.10
2018-09-06T00:43:05.661Z,34.70
2018-09-06T00:45:32.872Z,31.90
2018-09-06T00:48:00.141Z,34.67
2018-09-06T00:50:31.917Z,32.57
2018-09-06T00:52:59.349Z,36.13
2018-09-06T00:55:26.526Z,35.37
2018-09-06T00:57:53.777Z,33.40
2018-09-06T01:00:20.985Z,32.40
2018-09-06T01:02:48.205Z,30.03
2018-09-06T01:05:15.402Z,33.90
2018-09-06T01:07:42.619Z,31.23
2018-09-06T01:10:09.836Z,29.93
2018-09-06T01:12:37.037Z,32.70
2018-09-06T01:15:04.263Z,37.57
2018-09-06T01:17:31.465Z,31.97
2018-09-06T01:19:58.716Z,34.47
2018-09-06T01:22:25.921Z,29.80
2018-09-06T01:24:53.118Z,32.13
2018-09-06T01:27:20.335Z,30.07
2018-09-06T01:29:48.210Z,31.30
2018-09-06T01:32:15.421Z,34.30
2018-09-06T01:34:42.628Z,32.63
2018-09-06T01:37:10.140Z,38.10
2018-09-06T01:39:38.173Z,32.93
2018-09-06T01:42:06.132Z,36.43
2018-09-06T01:44:33.326Z,36.93
2018-09-06T01:47:00.440Z,41.40
2018-09-06T01:49:27.819Z,38.70
2018-09-06T01:51:55.073Z,36.13
2018-09-06T01:54:22.349Z,33.77
2018-09-06T01:56:49.581Z,41.40
2018-09-06T01:59:16.756Z,35.00
2018-09-06T02:01:43.991Z,39.40
2018-09-06T02:04:11.200Z,39.47
2018-09-06T02:06:38.569Z,38.03
2018-09-06T02:09:06.509Z,38.13
2018-09-06T02:11:33.884Z,35.57
2018-09-06T02:14:01.139Z,37.30
2018-09-06T02:16:28.425Z,33.57
2018-09-06T02:18:55.838Z,35.77
2018-09-06T02:21:23.132Z,36.73
2018-09-06T02:23:50.349Z,37.87
2018-09-06T02:26:17.606Z,38.50
2018-09-06T02:28:44.833Z,37.87
2018-09-06T02:31:12.054Z,43.70
2018-09-06T02:33:39.269Z,40.13
2018-09-06T02:36:07.381Z,39.43
2018-09-06T02:38:34.600Z,38.30
2018-09-06T02:41:01.871Z,37.77
2018-09-06T02:43:29.136Z,37.13
2018-09-06T02:45:56.393Z,33.80
2018-09-06T02:48:29.371Z,39.53
2018-09-06T02:51:02.308Z,38.70
2018-09-06T02:53:30.991Z,35.73
2018-09-06T02:55:58.260Z,36.00
2018-09-06T02:58:25.516Z,35.27
2018-09-06T03:00:52.764Z,32.70
2018-09-06T03:03:20.047Z,34.33
2018-09-06T03:05:47.365Z,33.87
2018-09-06T03:08:14.617Z,34.00
2018-09-06T03:10:43.256Z,31.63
2018-09-06T03:13:10.494Z,33.00
2018-09-06T03:15:37.704Z,34.03
2018-09-06T03:18:04.984Z,34.37
2018-09-06T03:20:32.196Z,33.43
2018-09-06T03:22:59.447Z,35.90
2018-09-06T03:25:26.655Z,35.77
2018-09-06T03:27:54.835Z,34.07
2018-09-06T03:30:22.069Z,36.33
2018-09-06T03:32:49.309Z,34.80
2018-09-06T03:35:16.528Z,40.43
2018-09-06T03:37:43.820Z,37.43
2018-09-06T03:40:11.057Z,36.10
2018-09-06T03:42:38.284Z,39.17
2018-09-06T03:45:05.525Z,38.00
2018-09-06T03:47:32.736Z,38.43
2018-09-06T03:50:00.029Z,35.07
2018-09-06T03:52:27.265Z,35.27
2018-09-06T03:54:54.585Z,36.63
2018-09-06T03:57:21.824Z,36.70
2018-09-06T03:59:49.101Z,38.27
2018-09-06T04:02:16.320Z,35.27
2018-09-06T04:04:43.576Z,36.47
2018-09-06T04:07:10.764Z,39.83
2018-09-06T04:09:38.021Z,35.87
2018-09-06T04:12:05.249Z,37.23
2018-09-06T04:14:32.535Z,37.03
2018-09-06T04:16:59.788Z,37.80
2018-09-06T04:19:27.020Z,36.60
2018-09-06T04:21:54.244Z,35.67
2018-09-06T04:24:21.943Z,35.30
2018-09-06T04:26:49.068Z,37.73
2018-09-06T04:29:16.301Z,34.67
2018-09-06T04:31:43.529Z,36.03
2018-09-06T04:34:10.809Z,35.87
2018-09-06T04:36:38.116Z,37.43
2018-09-06T04:39:06.774Z,37.70
2018-09-06T04:41:34.034Z,35.70
2018-09-06T04:44:01.280Z,38.80
2018-09-06T04:46:28.527Z,37.57
2018-09-06T04:48:55.717Z,37.40
2018-09-06T04:51:22.977Z,36.90
2018-09-06T04:53:50.189Z,38.30
2018-09-06T04:56:17.381Z,37.47
2018-09-06T04:58:44.636Z,39.17
2018-09-06T05:01:11.848Z,39.40
2018-09-06T05:03:39.089Z,38.37
2018-09-06T05:06:06.326Z,38.80
2018-09-06T05:08:33.541Z,39.57
2018-09-06T05:11:00.772Z,34.37
2018-09-06T05:13:28.046Z,35.77
2018-09-06T05:15:55.293Z,34.57
2018-09-06T05:18:22.573Z,32.27
2018-09-06T05:20:49.981Z,35.50
2018-09-06T05:23:17.197Z,32.30
2018-09-06T05:25:44.456Z,31.73
2018-09-06T05:28:11.600Z,32.53
2018-09-06T05:30:39.096Z,27.73
2018-09-06T05:33:06.129Z,31.73
2018-09-06T05:35:33.377Z,30.23
2018-09-06T05:38:00.649Z,30.80
2018-09-06T05:40:27.884Z,28.77
2018-09-06T05:42:55.138Z,32.47
2018-09-06T05:45:22.396Z,29.80
2018-09-06T05:47:55.414Z,34.27
2018-09-06T05:50:22.566Z,35.83
2018-09-06T05:52:49.928Z,32.07
2018-09-06T05:55:17.144Z,31.90
2018-09-06T05:57:44.405Z,33.90
2018-09-06T06:00:17.509Z,32.97
2018-09-06T06:02:44.808Z,31.70
2018-09-06T06:05:12.162Z,33.30
2018-09-06T06:07:45.288Z,37.13
2018-09-06T06:10:12.537Z,33.37
2018-09-06T06:12:39.737Z,31.47
2018-09-06T06:15:06.952Z,31.87
2018-09-06T06:17:34.155Z,32.83
2018-09-06T06:20:01.377Z,30.77
2018-09-06T06:22:28.634Z,35.73
2018-09-06T06:24:55.867Z,36.60
2018-09-06T06:27:23.052Z,35.20
2018-09-06T06:29:50.313Z,35.97
2018-09-06T06:32:17.633Z,38.37
2018-09-06T06:34:44.807Z,34.23
2018-09-06T06:37:12.052Z,37.30
2018-09-06T06:39:39.270Z,41.37
2018-09-06T06:42:06.507Z,38.23
2018-09-06T06:44:33.677Z,37.33
2018-09-06T06:47:00.847Z,38.40
2018-09-06T06:49:28.067Z,38.33
2018-09-06T06:51:55.264Z,36.70
2018-09-06T06:54:22.558Z,37.40
2018-09-06T06:56:49.828Z,34.97
2018-09-06T06:59:17.038Z,37.27
2018-09-06T07:01:48.112Z,33.25
2018-09-06T07:04:15.367Z,36.60
2018-09-06T07:06:42.651Z,34.50
2018-09-06T07:09:10.268Z,33.23
2018-09-06T07:11:37.507Z,34.83
2018-09-06T07:14:04.755Z,37.83
2018-09-06T07:16:31.946Z,34.92
2018-09-06T07:18:59.152Z,34.70
2018-09-06T07:21:26.419Z,37.08
2018-09-06T07:23:53.635Z,35.48
2018-09-06T07:26:20.920Z,33.78
2018-09-06T07:28:48.144Z,35.13
2018-09-06T07:31:15.405Z,37.95
2018-09-06T07:33:42.941Z,36.30
2018-09-06T07:36:10.227Z,39.53
2018-09-06T07:38:37.465Z,34.73
2018-09-06T07:41:04.692Z,36.48
2018-09-06T07:43:31.908Z,34.58
2018-09-06T07:45:59.141Z,35.65
2018-09-06T07:48:26.360Z,33.85
2018-09-06T07:50:53.584Z,33.25
2018-09-06T07:53:20.746Z,35.10
2018-09-06T07:55:47.973Z,33.23
2018-09-06T07:58:15.212Z,32.38
2018-09-06T08:00:42.405Z,34.67
2018-09-06T08:03:10.748Z,33.60
2018-09-06T08:05:38.273Z,34.08
2018-09-06T08:08:05.444Z,35.00
2018-09-06T08:10:32.694Z,34.65
2018-09-06T08:12:59.924Z,31.42
2018-09-06T08:15:27.116Z,31.30
2018-09-06T08:17:54.308Z,32.45
2018-09-06T08:20:21.540Z,32.03
2018-09-06T08:22:48.785Z,34.40
2018-09-06T08:25:16.030Z,32.48
2018-09-06T08:27:43.296Z,33.53
2018-09-06T08:30:10.524Z,30.17
2018-09-06T08:32:37.748Z,31.95
2018-09-06T08:35:04.966Z,28.92
2018-09-06T08:37:32.190Z,30.40
2018-09-06T08:39:59.405Z,30.62
2018-09-06T08:42:26.641Z,29.35
2018-09-06T08:44:53.883Z,29.45
2018-09-06T08:47:21.138Z,26.52
2018-09-06T08:49:48.389Z,28.23
2018-09-06T08:52:15.611Z,28.40
2018-09-06T08:54:42.822Z,27.73
2018-09-06T08:57:10.029Z,26.15
2018-09-06T08:59:37.288Z,27.45
2018-09-06T09:02:09.154Z,26.48
2018-09-06T09:04:36.363Z,30.10
2018-09-06T09:07:03.597Z,26.70
2018-09-06T09:09:30.865Z,28.20
2018-09-06T09:11:58.118Z,27.25
2018-09-06T09:14:25.365Z,23.30
2018-09-06T09:16:52.573Z,23.02
2018-09-06T09:19:20.741Z,22.27
2018-09-06T09:21:48.029Z,25.95
2018-09-06T09:24:15.200Z,21.80
2018-09-06T09:26:42.396Z,19.50
2018-09-06T09:29:09.595Z,23.40
2018-09-06T09:31:36.808Z,21.73
2018-09-06T09:34:04.039Z,19.00
2018-09-06T09:36:31.302Z,20.48
2018-09-06T09:38:58.525Z,18.65
2018-09-06T09:41:25.746Z,18.35
2018-09-06T09:43:53.017Z,15.58
2018-09-06T09:48:47.081Z,17.17
2018-09-06T09:51:14.333Z,17.30
2018-09-06T09:53:41.558Z,16.00
2018-09-06T09:56:08.836Z,15.68
2018-09-06T09:58:36.061Z,19.37
2018-09-06T10:01:03.406Z,14.68
2018-09-06T10:03:36.329Z,14.90
2018-09-06T10:06:09.671Z,14.33
2018-09-06T10:08:42.497Z,13.58
2018-09-06T10:11:09.820Z,14.50
2018-09-06T10:13:37.047Z,17.82
2018-09-06T10:16:04.308Z,13.28
2018-09-06T10:18:31.549Z,13.80
2018-09-06T10:20:58.819Z,17.73
2018-09-06T10:23:26.046Z,14.13
2018-09-06T10:25:53.304Z,13.32
2018-09-06T10:28:20.491Z,14.55
2018-09-06T10:30:47.761Z,14.25
2018-09-06T10:33:14.969Z,13.55
2018-09-06T10:35:42.177Z,13.25
2018-09-06T10:38:09.325Z,13.15
2018-09-06T10:40:36.616Z,14.00
2018-09-06T10:43:03.861Z,12.63
2018-09-06T10:45:31.127Z,12.25
2018-09-06T10:47:58.419Z,12.85
2018-09-06T10:50:25.942Z,13.35
2018-09-06T10:52:53.159Z,13.93
2018-09-06T10:55:20.442Z,11.97
2018-09-06T10:57:47.760Z,13.70
2018-09-06T11:00:15.001Z,12.68
2018-09-06T11:02:42.277Z,12.63
2018-09-06T11:05:09.501Z,11.63
2018-09-06T11:07:37.377Z,11.60
2018-09-06T11:10:04.633Z,12.13
2018-09-06T11:12:31.889Z,11.22
2018-09-06T11:14:59.099Z,12.28
2018-09-06T11:17:26.302Z,11.70
2018-09-06T11:19:53.538Z,12.85
2018-09-06T11:22:20.877Z,11.45
2018-09-06T11:24:47.992Z,10.55
2018-09-06T11:27:15.201Z,11.55
2018-09-06T11:29:42.633Z,12.88
2018-09-06T11:32:09.857Z,10.65
2018-09-06T11:34:40.884Z,11.48
2018-09-06T11:37:08.073Z,11.00
2018-09-06T11:39:35.316Z,10.75
2018-09-06T11:42:02.652Z,10.25
2018-09-06T11:44:29.852Z,11.38
2018-09-06T11:46:57.143Z,10.18
2018-09-06T11:49:24.332Z,11.95
2018-09-06T11:51:51.581Z,9.65
2018-09-06T11:54:18.876Z,10.65
2018-09-06T11:56:46.133Z,9.45
2018-09-06T11:59:13.413Z,9.88
2018-09-06T12:01:40.691Z,9.53
2018-09-06T12:04:08.136Z,10.60
2018-09-06T12:06:35.609Z,9.40
2018-09-06T12:09:03.254Z,10.03
2018-09-06T12:11:30.470Z,9.10
2018-09-06T12:13:57.714Z,9.38
2018-09-06T12:16:25.172Z,9.58
2018-09-06T12:18:52.399Z,9.45
2018-09-06T12:21:19.609Z,10.60
2018-09-06T12:23:46.890Z,9.48
2018-09-06T12:26:14.085Z,9.83
2018-09-06T12:28:41.333Z,9.48
2018-09-06T12:31:08.694Z,10.43
2018-09-06T12:33:36.843Z,10.25
2018-09-06T12:36:04.043Z,10.50
2018-09-06T12:38:31.309Z,11.00
2018-09-06T12:41:02.597Z,9.75
2018-09-06T12:43:29.860Z,9.73
2018-09-06T12:45:57.354Z,10.15
2018-09-06T12:48:24.572Z,9.58
2018-09-06T12:50:51.885Z,9.35
2018-09-06T12:53:19.160Z,9.38
2018-09-06T12:55:46.392Z,10.03
2018-09-06T12:58:13.643Z,9.88
2018-09-06T13:00:40.892Z,10.20
2018-09-06T13:03:08.101Z,9.58
2018-09-06T13:05:35.488Z,10.10
2018-09-06T13:08:02.719Z,10.23
2018-09-06T13:10:29.963Z,9.80
2018-09-06T13:12:57.236Z,9.93
2018-09-06T13:15:24.454Z,10.28
2018-09-06T13:17:51.661Z,14.98
2018-09-06T13:20:18.925Z,12.07
2018-09-06T13:22:46.127Z,9.70
2018-09-06T13:25:13.370Z,10.40
2018-09-06T13:27:40.581Z,10.13
2018-09-06T13:30:07.826Z,10.72
2018-09-06T13:32:35.049Z,10.18
2018-09-06T13:35:02.265Z,12.85
2018-09-06T13:37:29.509Z,13.22
2018-09-06T13:39:56.717Z,10.80
2018-09-06T13:42:24.013Z,10.50
2018-09-06T13:44:51.212Z,10.40
2018-09-06T13:47:18.436Z,9.55
2018-09-06T13:49:45.624Z,9.30
2018-09-06T13:52:12.902Z,9.28
2018-09-06T13:54:40.062Z,10.93
2018-09-06T13:57:07.374Z,9.80
2018-09-06T13:59:34.639Z,9.63
2018-09-06T14:02:01.878Z,10.43
2018-09-06T14:04:29.094Z,9.85
2018-09-06T14:06:56.323Z,9.73
2018-09-06T14:09:23.514Z,9.63
2018-09-06T14:11:50.672Z,12.35
2018-09-06T14:14:17.886Z,10.35
2018-09-06T14:16:45.124Z,9.55
2018-09-06T14:19:12.300Z,9.18
2018-09-06T14:21:39.557Z,9.35
2018-09-06T14:24:06.740Z,10.10
2018-09-06T14:26:33.986Z,9.25
2018-09-06T14:29:01.202Z,9.05
2018-09-06T14:31:28.488Z,12.13
2018-09-06T14:33:55.692Z,9.93
2018-09-06T14:36:22.917Z,9.60
2018-09-06T14:38:50.174Z,10.35
2018-09-06T14:41:17.384Z,11.63
2018-09-06T14:43:44.541Z,9.13
2018-09-06T14:46:11.760Z,9.45
2018-09-06T14:48:38.960Z,9.70
2018-09-06T14:51:06.207Z,10.65
2018-09-06T14:53:33.476Z,9.13
2018-09-06T14:56:00.705Z,9.98
2018-09-06T14:58:27.908Z,8.95
2018-09-06T15:00:55.145Z,10.10
2018-09-06T15:03:22.376Z,9.65
2018-09-06T15:05:49.568Z,9.30
2018-09-06T15:08:16.820Z,8.98
2018-09-06T15:10:44.024Z,10.23
2018-09-06T15:13:11.241Z,10.75
2018-09-06T15:15:38.475Z,11.10
2018-09-06T15:18:05.777Z,9.58
2018-09-06T15:20:32.984Z,10.03
2018-09-06T15:23:00.189Z,9.85
2018-09-06T15:25:27.388Z,9.35
2018-09-06T15:27:54.658Z,9.58
2018-09-06T15:30:21.840Z,10.93
2018-09-06T15:32:49.082Z,11.20
2018-09-06T15:35:16.288Z,9.68
2018-09-06T15:37:43.494Z,9.45
2018-09-06T15:40:10.794Z,9.55
2018-09-06T15:42:38.083Z,9.60
2018-09-06T15:45:05.272Z,10.10
2018-09-06T15:47:32.472Z,11.83
2018-09-06T15:49:59.986Z,9.98
2018-09-06T15:52:27.098Z,10.05
2018-09-06T15:54:54.272Z,9.00
2018-09-06T15:57:21.488Z,10.08
2018-09-06T15:59:48.706Z,11.70
2018-09-06T16:02:15.917Z,10.32
2018-09-06T16:04:43.181Z,9.55
2018-09-06T16:07:10.409Z,9.38
2018-09-06T16:09:37.678Z,10.18
2018-09-06T16:12:04.886Z,9.15
2018-09-06T16:14:32.124Z,11.68
2018-09-06T16:16:59.325Z,11.43
2018-09-06T16:19:26.543Z,10.45
2018-09-06T16:21:53.750Z,10.15
2018-09-06T16:24:21.000Z,9.48
2018-09-06T16:26:48.256Z,9.08
2018-09-06T16:29:15.530Z,11.35
2018-09-06T16:31:42.803Z,10.95
2018-09-06T16:34:10.038Z,9.05
2018-09-06T16:36:37.273Z,12.80
2018-09-06T16:39:06.227Z,11.15
2018-09-06T16:41:33.476Z,15.03
2018-09-06T16:44:00.723Z,11.08
2018-09-06T16:46:27.939Z,11.18
2018-09-06T16:48:55.116Z,14.60
2018-09-06T16:51:22.328Z,17.37
2018-09-06T16:53:49.562Z,10.85
2018-09-06T16:56:16.729Z,15.03
2018-09-06T16:58:43.953Z,24.35
2018-09-06T17:01:11.192Z,13.38
2018-09-06T17:03:38.372Z,13.62
2018-09-06T17:06:05.599Z,16.27
2018-09-06T17:08:32.805Z,17.52
2018-09-06T17:10:59.969Z,13.93
2018-09-06T17:13:27.192Z,11.97
2018-09-06T17:15:54.400Z,12.40
2018-09-06T17:18:21.634Z,11.38
2018-09-06T17:20:48.882Z,15.32
2018-09-06T17:23:16.073Z,10.40
2018-09-06T17:25:43.291Z,11.15
2018-09-06T17:28:10.484Z,11.53
2018-09-06T17:30:37.704Z,11.38
2018-09-06T17:33:04.946Z,14.25
2018-09-06T17:35:32.132Z,13.88
2018-09-06T17:37:59.349Z,12.43
2018-09-06T17:40:26.552Z,12.85
2018-09-06T17:42:53.797Z,16.00
2018-09-06T17:45:21.070Z,12.43
2018-09-06T17:47:48.387Z,13.55
2018-09-06T17:50:15.533Z,20.72
2018-09-06T17:52:42.762Z,16.25
2018-09-06T17:55:09.977Z,13.13
2018-09-06T17:57:37.230Z,13.13
2018-09-06T18:00:04.767Z,13.65
2018-09-06T18:02:31.979Z,14.45
2018-09-06T18:04:59.197Z,13.70
2018-09-06T18:07:26.470Z,12.55
2018-09-06T18:09:53.714Z,13.28
2018-09-06T18:12:21.009Z,14.93
2018-09-06T18:14:48.216Z,12.58
2018-09-06T18:17:15.502Z,22.35
2018-09-06T18:19:42.728Z,14.33
2018-09-06T18:22:09.957Z,12.43
2018-09-06T18:24:37.360Z,13.95
2018-09-06T18:27:04.589Z,13.72
2018-09-06T18:29:31.838Z,15.23
2018-09-06T18:31:59.118Z,12.68
2018-09-06T18:34:26.413Z,14.78
2018-09-06T18:36:53.657Z,12.43
2018-09-06T18:39:22.480Z,14.25
2018-09-06T18:41:49.684Z,12.58
2018-09-06T18:44:16.917Z,13.88
2018-09-06T18:46:44.150Z,17.07
2018-09-06T18:49:11.388Z,17.57
2018-09-06T18:51:38.640Z,17.85
2018-09-06T18:54:05.844Z,15.63
2018-09-06T18:56:33.154Z,12.98
2018-09-06T18:59:00.425Z,13.08
2018-09-06T19:01:27.633Z,13.75
2018-09-06T19:03:54.832Z,13.10
2018-09-06T19:06:22.045Z,15.80
2018-09-06T19:08:49.350Z,16.42
2018-09-06T19:11:16.668Z,16.42
2018-09-06T19:13:43.872Z,16.45
2018-09-06T19:16:11.081Z,18.60
2018-09-06T19:18:38.473Z,14.53
2018-09-06T19:21:05.724Z,15.32
2018-09-06T19:23:32.983Z,14.55
2018-09-06T19:26:00.497Z,17.60
2018-09-06T19:28:27.752Z,15.13
2018-09-06T19:30:54.968Z,14.63
2018-09-06T19:33:22.174Z,16.42
2018-09-06T19:35:49.841Z,16.12
2018-09-06T19:38:17.049Z,14.87
2018-09-06T19:40:44.288Z,18.70
2018-09-06T19:43:11.490Z,17.90
2018-09-06T19:45:38.738Z,14.60
2018-09-06T19:48:06.110Z,16.10
2018-09-06T19:50:33.346Z,16.93
2018-09-06T19:53:00.548Z,15.20
2018-09-06T19:55:27.800Z,16.77
2018-09-06T19:57:55.057Z,16.10
2018-09-06T20:00:22.309Z,11.93
2018-09-06T20:02:49.572Z,12.18
2018-09-06T20:05:16.828Z,13.68
2018-09-06T20:07:44.060Z,12.82
2018-09-06T20:10:11.388Z,13.50
2018-09-06T20:12:38.712Z,12.37
2018-09-06T20:15:06.072Z,10.18
2018-09-06T20:17:33.274Z,11.73
2018-09-06T20:20:00.501Z,10.80
2018-09-06T20:22:27.848Z,12.33
2018-09-06T20:24:55.045Z,10.10
2018-09-06T20:27:22.239Z,11.05
2018-09-06T20:29:49.472Z,10.50
2018-09-06T20:32:16.613Z,9.60
2018-09-06T20:34:43.861Z,15.72
2018-09-06T20:37:11.107Z,11.60
2018-09-06T20:39:38.392Z,12.53
2018-09-06T20:42:05.531Z,14.05
2018-09-06T20:44:33.550Z,12.23
2018-09-06T20:47:00.781Z,15.98
2018-09-06T20:49:28.012Z,13.70
2018-09-06T20:51:55.232Z,14.38
2018-09-06T20:54:22.441Z,17.62
2018-09-06T20:56:49.684Z,12.82
2018-09-06T20:59:16.977Z,13.48
2018-09-06T21:01:44.160Z,15.32
2018-09-06T21:04:11.436Z,13.08
2018-09-06T21:06:38.753Z,13.00
2018-09-06T21:09:06.158Z,13.55
2018-09-06T21:11:33.375Z,15.95
2018-09-06T21:14:00.608Z,13.93
2018-09-06T21:16:27.838Z,13.70
2018-09-06T21:18:55.055Z,14.68
2018-09-06T21:21:22.263Z,14.30
2018-09-06T21:23:49.501Z,15.80
2018-09-06T21:26:16.705Z,17.00
2018-09-06T21:28:43.949Z,17.03
2018-09-06T21:31:11.274Z,17.40
2018-09-06T21:33:38.533Z,16.33
2018-09-06T21:36:05.771Z,14.95
2018-09-06T21:38:32.988Z,17.27
2018-09-06T21:41:00.197Z,22.17
2018-09-06T21:43:27.465Z,16.03
2018-09-06T21:45:54.705Z,16.62
2018-09-06T21:48:21.932Z,14.85
2018-09-06T21:50:49.088Z,16.40
2018-09-06T21:53:16.344Z,15.15
2018-09-06T21:55:43.571Z,19.93
2018-09-06T21:58:10.858Z,18.07
2018-09-06T22:00:38.113Z,17.32
2018-09-06T22:03:10.964Z,18.92
2018-09-06T22:05:38.265Z,15.43
2018-09-06T22:08:05.490Z,16.53
2018-09-06T22:10:32.747Z,19.52
2018-09-06T22:12:59.987Z,19.32
2018-09-06T22:15:27.241Z,18.90
2018-09-06T22:17:54.503Z,18.23
2018-09-06T22:20:21.750Z,18.70
2018-09-06T22:22:48.971Z,19.70
2018-09-06T22:25:16.136Z,18.95
2018-09-06T22:27:43.436Z,15.17
2018-09-06T22:30:10.688Z,16.85
2018-09-06T22:32:37.976Z,19.98
2018-09-06T22:35:05.272Z,17.70
2018-09-06T22:37:32.492Z,17.42
2018-09-06T22:39:59.725Z,16.97
2018-09-06T22:42:27.022Z,18.33
2018-09-06T22:44:54.305Z,16.83
2018-09-06T22:47:21.597Z,19.92
2018-09-06T22:49:48.836Z,16.67
2018-09-06T22:52:16.117Z,19.92
2018-09-06T22:54:43.452Z,20.20
2018-09-06T22:57:10.697Z,16.93
2018-09-06T22:59:37.953Z,18.98
2018-09-06T23:02:05.264Z,18.67
2018-09-06T23:04:32.481Z,20.20
2018-09-06T23:06:59.779Z,20.57
2018-09-06T23:09:27.013Z,22.77
2018-09-06T23:11:54.258Z,19.40
2018-09-06T23:14:21.470Z,16.17
2018-09-06T23:16:48.721Z,18.67
2018-09-06T23:19:15.929Z,21.30
2018-09-06T23:21:43.145Z,19.87
2018-09-06T23:24:10.377Z,22.03
2018-09-06T23:26:37.632Z,19.23
2018-09-06T23:29:04.864Z,23.13
2018-09-06T23:31:32.100Z,24.70
2018-09-06T23:33:59.329Z,22.33
2018-09-06T23:36:26.801Z,23.25
2018-09-06T23:38:54.010Z,23.20
2018-09-06T23:41:21.209Z,22.73
2018-09-06T23:43:48.422Z,20.90
2018-09-06T23:46:15.673Z,23.80
2018-09-06T23:48:42.872Z,21.67
2018-09-06T23:51:10.114Z,21.17
2018-09-06T23:53:37.317Z,32.78
2018-09-06T23:56:04.594Z,22.40
2018-09-06T23:58:31.910Z,22.40
